createdAt,value
2023-06-04T00:20:53.453Z,16.8
2023-06-04T00:51:11.524Z,16.5
2023-06-04T01:21:27.987Z,16.05
2023-06-04T01:51:46.213Z,15.9
2023-06-04T02:22:03.536Z,15.7
2023-06-04T02:52:21.194Z,15.4
2023-06-04T03:22:37.365Z,14.9
2023-06-04T03:52:54.899Z,14.95
2023-06-04T04:23:13.575Z,15.1
2023-06-04T04:53:32.695Z,15.75
2023-06-04T05:23:52.954Z,17.25
2023-06-04T05:54:14.876Z,17.85
2023-06-04T06:24:35.193Z,19.05
2023-06-04T06:55:02.027Z,20.25
2023-06-04T07:25:30.016Z,21.65
2023-06-04T07:55:57.638Z,23.55
2023-06-04T08:26:17.857Z,23.6
2023-06-04T08:56:42.295Z,26
2023-06-04T09:27:04.007Z,24.9
2023-06-04T09:57:22.252Z,26.9
2023-06-04T10:27:41.723Z,27.65
2023-06-04T10:58:03.538Z,28.5
2023-06-04T11:28:19.732Z,28.1
2023-06-04T11:58:41.723Z,29.1
2023-06-04T12:29:02.159Z,28.55
2023-06-04T12:59:23.019Z,29.55
2023-06-04T13:29:39.347Z,28.7
2023-06-04T13:59:43.194Z,28.8
2023-06-04T14:29:45.739Z,28.05
2023-06-04T14:59:58.721Z,25.5
2023-06-04T15:30:12.189Z,24.5
2023-06-04T16:00:28.356Z,24.3
2023-06-04T16:30:44.587Z,24.1
2023-06-04T17:01:01.569Z,24
2023-06-04T17:31:20.203Z,23.75
2023-06-04T18:01:37.392Z,23.25
2023-06-04T18:31:55.228Z,22.8
2023-06-04T19:02:12.295Z,22.1
2023-06-04T19:32:28.762Z,21.4
2023-06-04T20:02:45.640Z,20.6
2023-06-04T20:33:02.590Z,20
2023-06-04T21:03:19.440Z,19.15
2023-06-04T21:33:40.212Z,18.45
2023-06-04T22:03:57.953Z,17.95
2023-06-04T22:34:15.755Z,17.6
2023-06-04T23:04:32.925Z,17.6
2023-06-04T23:34:51.849Z,17.3
